createdAt,value
2022-11-18T00:01:18.387Z,86.48
2022-11-18T00:03:52.638Z,87.10
2022-11-18T00:06:28.697Z,86.80
2022-11-18T00:09:01.812Z,87.04
2022-11-18T00:11:53.142Z,86.46
2022-11-18T00:14:27.594Z,87.13
2022-11-18T00:17:03.800Z,86.93
2022-11-18T00:19:39.027Z,86.47
2022-11-18T00:22:13.372Z,87.05
2022-11-18T00:24:45.945Z,87.11
2022-11-18T00:27:18.495Z,87.26
2022-11-18T00:29:51.095Z,87.37
2022-11-18T00:32:24.011Z,87.44
2022-11-18T00:34:56.616Z,87.46
2022-11-18T00:37:29.175Z,87.17
2022-11-18T00:40:02.505Z,87.64
2022-11-18T00:42:53.737Z,87.14
2022-11-18T00:45:26.322Z,86.85
2022-11-18T00:47:58.943Z,86.55
2022-11-18T00:50:33.457Z,86.25
2022-11-18T00:53:06.087Z,86.83
2022-11-18T00:55:38.657Z,86.26
2022-11-18T00:58:14.477Z,85.89
2022-11-18T01:00:52.734Z,86.29
2022-11-18T01:03:25.839Z,86.03
2022-11-18T01:05:58.498Z,86.05
2022-11-18T01:08:31.197Z,85.87
2022-11-18T01:11:22.367Z,85.83
2022-11-18T01:13:55.674Z,86.39
2022-11-18T01:16:29.602Z,86.10
2022-11-18T01:19:02.298Z,86.32
2022-11-18T01:21:34.840Z,86.28
2022-11-18T01:24:07.614Z,86.09
2022-11-18T01:26:40.178Z,86.05
2022-11-18T01:29:12.847Z,85.73
2022-11-18T01:32:09.265Z,85.93
2022-11-18T01:34:38.054Z,85.79
2022-11-18T01:37:10.656Z,85.79
2022-11-18T01:39:43.174Z,85.06
2022-11-18T01:42:17.525Z,85.19
2022-11-18T01:45:09.555Z,85.23
2022-11-18T01:47:51.725Z,85.09
2022-11-18T01:50:26.038Z,85.15
2022-11-18T01:53:07.326Z,84.88
2022-11-18T01:55:46.338Z,85.30
2022-11-18T01:58:29.849Z,85.50
2022-11-18T02:01:05.589Z,85.30
2022-11-18T02:03:39.682Z,85.09
2022-11-18T02:06:13.917Z,84.80
2022-11-18T02:08:47.016Z,85.10
2022-11-18T02:11:38.502Z,84.82
2022-11-18T02:14:11.733Z,84.91
2022-11-18T02:17:04.355Z,84.62
2022-11-18T02:19:46.172Z,84.08
2022-11-18T02:22:40.407Z,84.18
2022-11-18T02:25:24.540Z,84.50
2022-11-18T02:28:31.705Z,84.28
2022-11-18T02:31:20.862Z,83.97
2022-11-18T02:34:22.807Z,83.86
2022-11-18T02:37:17.880Z,83.34
2022-11-18T02:40:02.088Z,83.67
2022-11-18T02:42:39.325Z,83.13
2022-11-18T02:45:18.482Z,83.64
2022-11-18T02:47:52.990Z,83.38
2022-11-18T02:50:29.987Z,83.95
2022-11-18T02:53:08.356Z,83.56
2022-11-18T02:55:44.324Z,83.29
2022-11-18T02:58:21.314Z,83.51
2022-11-18T03:01:01.130Z,83.25
2022-11-18T03:03:36.875Z,83.67
2022-11-18T03:06:30.134Z,83.73
2022-11-18T03:09:29.994Z,83.59
2022-11-18T03:12:35.245Z,83.84
2022-11-18T03:15:34.359Z,83.77
2022-11-18T03:18:47.269Z,83.64
2022-11-18T03:21:39.439Z,84.03
2022-11-18T03:24:34.660Z,84.17
2022-11-18T03:27:24.220Z,83.79
2022-11-18T03:30:11.013Z,84.01
2022-11-18T03:32:59.114Z,84.25
2022-11-18T03:35:42.107Z,83.82
2022-11-18T03:38:32.131Z,84.29
2022-11-18T03:41:14.218Z,84.36
2022-11-18T03:44:01.776Z,84.04
2022-11-18T03:46:52.410Z,84.18
2022-11-18T03:49:43.146Z,83.53
2022-11-18T03:52:30.427Z,84.03
2022-11-18T03:55:13.842Z,84.78
2022-11-18T03:58:09.730Z,84.82
2022-11-18T04:00:49.843Z,84.31
2022-11-18T04:03:25.938Z,84.59
2022-11-18T04:06:30.934Z,84.59
2022-11-18T04:09:17.398Z,84.36
2022-11-18T04:12:02.875Z,84.40
2022-11-18T04:14:39.359Z,84.90
2022-11-18T04:17:17.021Z,84.69
2022-11-18T04:19:50.116Z,85.09
2022-11-18T04:22:25.583Z,85.21
2022-11-18T04:24:58.203Z,85.46
2022-11-18T04:27:33.505Z,85.48
2022-11-18T04:30:08.019Z,85.67
2022-11-18T04:32:43.207Z,85.67
2022-11-18T04:35:19.142Z,85.69
2022-11-18T04:37:52.044Z,85.65
2022-11-18T04:40:24.776Z,86.78
2022-11-18T04:42:58.786Z,87.15
2022-11-18T04:45:31.550Z,86.70
2022-11-18T04:48:04.531Z,87.04
2022-11-18T04:50:40.202Z,86.97
2022-11-18T04:53:12.864Z,87.16
2022-11-18T04:55:45.510Z,87.48
2022-11-18T04:58:18.239Z,87.15
2022-11-18T05:00:51.257Z,87.92
2022-11-18T05:03:26.618Z,87.96
2022-11-18T05:06:05.166Z,87.72
2022-11-18T05:08:38.050Z,87.78
2022-11-18T05:11:32.298Z,88.46
2022-11-18T05:14:05.605Z,88.12
2022-11-18T05:16:38.195Z,88.85
2022-11-18T05:19:11.442Z,89.22
2022-11-18T05:21:44.030Z,88.65
2022-11-18T05:24:17.505Z,89.08
2022-11-18T05:26:52.399Z,88.95
2022-11-18T05:29:25.157Z,89.26
2022-11-18T05:31:57.889Z,88.82
2022-11-18T05:34:30.585Z,88.41
2022-11-18T05:37:03.247Z,88.57
2022-11-18T05:39:36.135Z,88.86
2022-11-18T05:42:28.713Z,89.12
2022-11-18T05:45:01.374Z,89.05
2022-11-18T05:47:54.067Z,88.76
2022-11-18T05:50:26.933Z,89.47
2022-11-18T05:52:59.780Z,88.84
2022-11-18T05:55:57.005Z,89.18
2022-11-18T05:58:32.742Z,88.57
2022-11-18T06:01:07.708Z,88.83
2022-11-18T06:03:43.857Z,88.66
2022-11-18T06:06:25.065Z,88.87
2022-11-18T06:09:07.428Z,89.32
2022-11-18T06:11:52.376Z,89.06
2022-11-18T06:14:48.619Z,89.02
2022-11-18T06:17:37.021Z,89.59
2022-11-18T06:20:10.649Z,89.02
2022-11-18T06:22:46.592Z,88.86
2022-11-18T06:25:19.754Z,89.11
2022-11-18T06:27:59.967Z,88.89
2022-11-18T06:30:34.644Z,89.48
2022-11-18T06:33:12.740Z,89.52
2022-11-18T06:35:48.065Z,89.32
2022-11-18T06:38:26.336Z,89.14
2022-11-18T06:41:04.984Z,90.29
2022-11-18T06:43:44.365Z,89.84
2022-11-18T06:46:39.480Z,89.40
2022-11-18T06:49:13.913Z,89.06
2022-11-18T06:51:49.689Z,89.53
2022-11-18T06:54:29.477Z,89.05
2022-11-18T06:57:03.520Z,89.62
2022-11-18T06:59:38.756Z,89.43
2022-11-18T07:02:22.581Z,89.26
2022-11-18T07:04:57.472Z,89.12
2022-11-18T07:07:44.996Z,89.35
2022-11-18T07:10:24.179Z,88.84
2022-11-18T07:13:02.646Z,89.09
2022-11-18T07:15:39.932Z,88.79
2022-11-18T07:18:14.676Z,88.95
2022-11-18T07:20:55.181Z,89.04
2022-11-18T07:23:41.923Z,89.06
2022-11-18T07:26:16.331Z,89.46
2022-11-18T07:28:51.973Z,89.17
2022-11-18T07:31:25.314Z,88.87
2022-11-18T07:34:01.303Z,88.99
2022-11-18T07:36:37.235Z,88.97
2022-11-18T07:43:18.852Z,89.27
2022-11-18T07:46:28.326Z,89.36
2022-11-18T07:52:49.628Z,88.86
2022-11-18T07:56:18.654Z,88.50
2022-11-18T07:59:51.701Z,88.68
2022-11-18T08:02:24.637Z,88.90
2022-11-18T08:08:43.074Z,88.49
2022-11-18T08:11:26.612Z,88.41
2022-11-18T08:14:14.937Z,88.48
2022-11-18T08:16:54.461Z,88.30
2022-11-18T08:19:45.003Z,87.84
2022-11-18T08:22:35.381Z,88.30
2022-11-18T08:25:25.999Z,87.57
2022-11-18T08:28:22.624Z,87.14
2022-11-18T08:30:56.789Z,87.68
2022-11-18T08:33:49.801Z,87.69
2022-11-18T08:37:15.534Z,87.44
2022-11-18T08:40:48.819Z,87.54
2022-11-18T08:48:28.023Z,86.99
2022-11-18T08:51:26.650Z,86.10
2022-11-18T08:57:30.961Z,87.12
2022-11-18T09:00:17.241Z,86.14
2022-11-18T09:02:57.174Z,86.02
2022-11-18T09:05:39.243Z,85.48
2022-11-18T09:08:21.501Z,85.01
2022-11-18T09:11:12.040Z,84.76
2022-11-18T09:17:13.177Z,83.55
2022-11-18T09:23:26.486Z,83.03
2022-11-18T09:29:17.374Z,83.00
2022-11-18T09:31:59.996Z,82.82
2022-11-18T09:34:38.537Z,82.36
2022-11-18T09:37:24.401Z,82.23
2022-11-18T09:40:04.437Z,81.34
2022-11-18T09:43:02.386Z,81.74
2022-11-18T09:46:20.812Z,81.02
2022-11-18T09:52:35.775Z,80.79
2022-11-18T09:55:54.390Z,80.31
2022-11-18T09:58:47.858Z,80.02
2022-11-18T10:01:40.836Z,79.52
2022-11-18T10:04:38.328Z,79.37
2022-11-18T10:07:55.096Z,78.67
2022-11-18T10:11:31.280Z,78.64
2022-11-18T10:15:15.762Z,77.68
2022-11-18T10:18:52.781Z,77.14
2022-11-18T10:22:15.667Z,76.79
2022-11-18T10:25:40.139Z,76.29
2022-11-18T10:28:39.224Z,75.56
2022-11-18T10:31:26.433Z,75.71
2022-11-18T10:34:08.416Z,75.78
2022-11-18T10:37:20.244Z,75.97
2022-11-18T10:40:08.580Z,75.57
2022-11-18T10:43:17.001Z,75.83
2022-11-18T10:46:03.974Z,74.50
2022-11-18T10:49:15.817Z,74.49
2022-11-18T10:52:25.844Z,74.32
2022-11-18T10:55:48.133Z,74.68
2022-11-18T11:02:10.014Z,75.21
2022-11-18T11:05:05.078Z,74.81
2022-11-18T11:07:45.482Z,75.15
2022-11-18T11:10:39.809Z,75.64
2022-11-18T11:13:26.763Z,75.19
2022-11-18T11:16:13.616Z,74.95
2022-11-18T11:19:07.060Z,75.05
2022-11-18T11:21:42.481Z,74.74
2022-11-18T11:24:31.800Z,75.14
2022-11-18T11:31:03.949Z,74.70
2022-11-18T11:34:16.108Z,74.45
2022-11-18T11:37:32.438Z,75.01
2022-11-18T11:40:27.272Z,74.77
2022-11-18T11:43:24.790Z,74.56
2022-11-18T11:47:10.626Z,75.09
2022-11-18T11:49:56.064Z,73.84
2022-11-18T11:53:04.894Z,74.33
2022-11-18T11:56:38.348Z,74.06
2022-11-18T11:59:37.430Z,74.78
2022-11-18T12:06:23.932Z,73.91
2022-11-18T12:09:28.249Z,73.45
2022-11-18T12:13:11.148Z,73.19
2022-11-18T12:16:18.502Z,71.83
2022-11-18T12:19:13.031Z,71.23
2022-11-18T12:21:45.757Z,70.77
2022-11-18T12:24:33.479Z,69.30
2022-11-18T12:27:39.845Z,70.01
2022-11-18T12:30:19.382Z,70.04
2022-11-18T12:32:57.835Z,70.42
2022-11-18T12:35:36.885Z,70.83
2022-11-18T12:38:30.309Z,71.02
2022-11-18T12:41:22.850Z,70.79
2022-11-18T12:44:01.223Z,70.25
2022-11-18T12:46:45.424Z,70.14
2022-11-18T12:49:21.477Z,70.84
2022-11-18T12:52:01.045Z,70.44
2022-11-18T12:54:48.126Z,70.98
2022-11-18T12:57:28.238Z,71.52
2022-11-18T13:00:24.960Z,71.87
2022-11-18T13:03:01.482Z,72.46
2022-11-18T13:05:35.148Z,72.04
2022-11-18T13:08:18.674Z,72.58
2022-11-18T13:11:35.875Z,71.97
2022-11-18T13:15:07.942Z,72.15
2022-11-18T13:17:51.861Z,71.92
2022-11-18T13:20:35.608Z,71.61
2022-11-18T13:23:32.936Z,71.24
2022-11-18T13:26:22.234Z,72.04
2022-11-18T13:29:12.161Z,71.54
2022-11-18T13:32:03.028Z,71.60
2022-11-18T13:34:55.442Z,71.34
2022-11-18T13:37:34.309Z,71.50
2022-11-18T13:40:28.843Z,71.86
2022-11-18T13:43:01.660Z,72.21
2022-11-18T13:45:35.163Z,72.08
2022-11-18T13:48:14.012Z,71.93
2022-11-18T13:50:56.202Z,72.74
2022-11-18T13:53:40.348Z,72.70
2022-11-18T13:56:34.453Z,72.63
2022-11-18T13:59:22.354Z,72.85
2022-11-18T14:01:59.932Z,73.56
2022-11-18T14:04:33.169Z,73.58
2022-11-18T14:07:33.795Z,73.81
2022-11-18T14:10:09.000Z,73.31
2022-11-18T14:12:42.016Z,72.69
2022-11-18T14:15:37.950Z,72.21
2022-11-18T14:18:35.903Z,72.33
2022-11-18T14:21:12.869Z,72.13
2022-11-18T14:23:46.134Z,71.95
2022-11-18T14:26:28.354Z,71.62
2022-11-18T14:29:17.552Z,71.67
2022-11-18T14:32:16.878Z,71.55
2022-11-18T14:35:02.082Z,73.05
2022-11-18T14:37:34.829Z,72.15
2022-11-18T14:40:14.044Z,72.91
2022-11-18T14:42:46.809Z,72.77
2022-11-18T14:45:19.566Z,72.83
2022-11-18T14:47:52.848Z,73.99
2022-11-18T14:50:25.404Z,74.81
2022-11-18T14:52:57.985Z,74.55
2022-11-18T14:55:30.784Z,76.00
2022-11-18T14:58:03.667Z,77.58
2022-11-18T15:00:36.452Z,78.39
2022-11-18T15:03:11.857Z,78.11
2022-11-18T15:05:45.058Z,79.23
2022-11-18T15:08:20.461Z,79.45
2022-11-18T15:10:53.203Z,80.42
2022-11-18T15:13:29.154Z,80.10
2022-11-18T15:16:10.835Z,80.76
2022-11-18T15:18:46.719Z,81.41
2022-11-18T15:21:20.903Z,81.62
2022-11-18T15:23:54.485Z,81.88
2022-11-18T15:26:36.109Z,81.83
2022-11-18T15:29:24.619Z,81.90
2022-11-18T15:32:14.234Z,82.10
2022-11-18T15:34:55.812Z,82.59
2022-11-18T15:42:31.924Z,83.16
2022-11-18T15:45:30.002Z,83.58
2022-11-18T15:51:53.038Z,84.22
2022-11-18T15:54:57.455Z,84.21
2022-11-18T15:57:36.300Z,84.09
2022-11-18T16:00:11.952Z,84.29
2022-11-18T16:02:45.107Z,83.70
2022-11-18T16:05:27.275Z,84.26
2022-11-18T16:08:00.584Z,84.06
2022-11-18T16:10:58.040Z,84.11
2022-11-18T16:13:33.517Z,84.35
2022-11-18T16:16:15.672Z,84.14
2022-11-18T16:18:54.888Z,84.08
2022-11-18T16:21:33.565Z,84.13
2022-11-18T16:24:16.623Z,84.35
2022-11-18T16:26:55.942Z,84.62
2022-11-18T16:29:28.535Z,84.59
2022-11-18T16:32:03.921Z,84.71
2022-11-18T16:34:53.198Z,84.94
2022-11-18T16:37:40.412Z,85.17
2022-11-18T16:40:15.951Z,85.02
2022-11-18T16:42:54.374Z,85.20
2022-11-18T16:45:34.091Z,85.12
2022-11-18T16:48:24.810Z,84.97
2022-11-18T16:51:23.595Z,84.95
2022-11-18T16:54:03.051Z,85.40
2022-11-18T16:56:41.437Z,84.97
2022-11-18T16:59:30.790Z,84.94
2022-11-18T17:02:09.422Z,85.38
2022-11-18T17:04:45.724Z,85.19
2022-11-18T17:07:20.461Z,85.53
2022-11-18T17:10:00.618Z,84.93
2022-11-18T17:12:33.465Z,85.05
2022-11-18T17:15:09.617Z,84.98
2022-11-18T17:17:45.331Z,84.85
2022-11-18T17:20:20.820Z,84.91
2022-11-18T17:22:58.647Z,84.85
2022-11-18T17:25:36.146Z,85.03
2022-11-18T17:28:11.287Z,84.85
2022-11-18T17:30:49.688Z,85.21
2022-11-18T17:33:28.041Z,84.88
2022-11-18T17:36:20.793Z,85.16
2022-11-18T17:39:04.147Z,85.30
2022-11-18T17:41:57.417Z,85.23
2022-11-18T17:44:35.512Z,85.33
2022-11-18T17:47:18.489Z,85.14
2022-11-18T17:50:00.749Z,85.18
2022-11-18T17:52:33.465Z,85.02
2022-11-18T17:55:07.555Z,84.93
2022-11-18T17:57:43.888Z,84.90
2022-11-18T18:00:17.917Z,84.90
2022-11-18T18:02:53.162Z,84.98
2022-11-18T18:05:26.245Z,85.78
2022-11-18T18:08:14.426Z,85.39
2022-11-18T18:10:49.535Z,85.22
2022-11-18T18:14:03.620Z,85.42
2022-11-18T18:16:38.883Z,85.12
2022-11-18T18:19:18.673Z,85.11
2022-11-18T18:21:55.298Z,85.09
2022-11-18T18:24:36.692Z,84.96
2022-11-18T18:27:12.770Z,84.99
2022-11-18T18:29:50.569Z,84.78
2022-11-18T18:32:27.661Z,84.86
2022-11-18T18:35:03.949Z,85.00
2022-11-18T18:37:39.395Z,85.51
2022-11-18T18:40:18.797Z,85.59
2022-11-18T18:42:57.199Z,85.26
2022-11-18T18:45:56.392Z,85.49
2022-11-18T18:48:35.870Z,85.58
2022-11-18T18:51:11.778Z,85.25
2022-11-18T18:53:53.331Z,84.81
2022-11-18T18:56:34.953Z,85.08
2022-11-18T18:59:11.645Z,85.04
2022-11-18T19:01:45.433Z,84.81
2022-11-18T19:04:21.419Z,84.78
2022-11-18T19:07:00.581Z,84.73
2022-11-18T19:09:41.157Z,84.58
2022-11-18T19:12:45.018Z,84.54
2022-11-18T19:15:20.803Z,84.41
2022-11-18T19:17:58.872Z,84.49
2022-11-18T19:20:42.195Z,84.42
2022-11-18T19:23:18.306Z,84.69
2022-11-18T19:26:07.097Z,84.61
2022-11-18T19:28:42.439Z,84.63
2022-11-18T19:31:20.383Z,84.57
2022-11-18T19:34:00.779Z,84.67
2022-11-18T19:36:43.324Z,84.42
2022-11-18T19:39:19.483Z,84.87
2022-11-18T19:41:53.746Z,84.99
2022-11-18T19:44:27.366Z,85.03
2022-11-18T19:47:10.691Z,84.74
2022-11-18T19:50:08.395Z,85.36
2022-11-18T19:52:47.274Z,85.14
2022-11-18T19:55:23.123Z,85.09
2022-11-18T19:58:00.420Z,85.42
2022-11-18T20:00:36.920Z,85.26
2022-11-18T20:03:09.804Z,85.34
2022-11-18T20:05:52.040Z,85.92
2022-11-18T20:08:25.804Z,86.40
2022-11-18T20:11:09.175Z,85.95
2022-11-18T20:13:51.965Z,85.65
2022-11-18T20:16:26.802Z,85.20
2022-11-18T20:19:10.844Z,85.64
2022-11-18T20:21:45.109Z,85.55
2022-11-18T20:24:24.779Z,85.49
2022-11-18T20:27:01.171Z,85.42
2022-11-18T20:29:34.271Z,86.16
2022-11-18T20:32:10.396Z,86.06
2022-11-18T20:34:52.689Z,85.73
2022-11-18T20:37:28.111Z,85.61
2022-11-18T20:40:10.613Z,84.93
2022-11-18T20:43:07.219Z,85.09
2022-11-18T20:45:53.100Z,85.57
2022-11-18T20:48:29.263Z,85.32
2022-11-18T20:51:18.522Z,85.54
2022-11-18T20:53:55.106Z,85.46
2022-11-18T20:56:29.059Z,85.27
2022-11-18T20:59:02.720Z,85.34
2022-11-18T21:01:35.818Z,85.37
2022-11-18T21:04:12.354Z,85.25
2022-11-18T21:06:49.417Z,85.31
2022-11-18T21:09:22.278Z,85.17
2022-11-18T21:11:54.878Z,85.08
2022-11-18T21:14:31.020Z,85.28
2022-11-18T21:17:04.976Z,85.19
2022-11-18T21:19:44.620Z,85.18
2022-11-18T21:22:24.706Z,85.21
2022-11-18T21:24:57.400Z,85.64
2022-11-18T21:27:31.099Z,85.53
2022-11-18T21:30:09.738Z,85.39
2022-11-18T21:32:43.264Z,85.22
2022-11-18T21:35:23.880Z,85.63
2022-11-18T21:37:56.964Z,85.74
2022-11-18T21:40:47.692Z,86.07
2022-11-18T21:43:57.995Z,87.66
2022-11-18T21:46:29.946Z,86.51
2022-11-18T21:49:08.256Z,85.03
2022-11-18T21:51:43.365Z,84.83
2022-11-18T21:54:27.151Z,84.59
2022-11-18T21:57:13.446Z,84.73
2022-11-18T21:59:59.727Z,85.41
2022-11-18T22:02:38.765Z,85.19
2022-11-18T22:05:17.798Z,85.24
2022-11-18T22:07:53.485Z,85.75
2022-11-18T22:10:26.442Z,86.10
2022-11-18T22:12:59.165Z,85.90
2022-11-18T22:15:34.308Z,86.54
2022-11-18T22:18:10.048Z,86.16
2022-11-18T22:20:45.852Z,86.77
2022-11-18T22:23:21.872Z,86.98
2022-11-18T22:26:11.104Z,87.04
2022-11-18T22:28:58.591Z,86.89
2022-11-18T22:31:36.764Z,87.32
2022-11-18T22:34:14.848Z,87.01
2022-11-18T22:36:50.514Z,86.88
2022-11-18T22:39:26.582Z,86.75
2022-11-18T22:42:17.764Z,86.84
2022-11-18T22:44:50.508Z,87.14
2022-11-18T22:47:23.752Z,86.96
2022-11-18T22:49:56.735Z,86.83
2022-11-18T22:52:29.518Z,86.61
2022-11-18T22:55:02.342Z,86.82
2022-11-18T22:57:37.381Z,87.65
2022-11-18T23:00:20.234Z,87.51
2022-11-18T23:02:56.551Z,87.51
2022-11-18T23:05:31.092Z,86.98
2022-11-18T23:08:14.630Z,87.42
2022-11-18T23:10:56.419Z,87.27
2022-11-18T23:13:49.329Z,87.12
2022-11-18T23:16:25.141Z,86.81
2022-11-18T23:18:57.882Z,87.36
2022-11-18T23:21:31.563Z,87.03
2022-11-18T23:24:05.027Z,87.48
2022-11-18T23:26:40.625Z,87.41
2022-11-18T23:29:17.941Z,87.38
2022-11-18T23:31:54.097Z,87.16
2022-11-18T23:34:27.104Z,87.00
2022-11-18T23:36:59.770Z,87.07
2022-11-18T23:39:36.946Z,87.19
2022-11-18T23:42:10.096Z,87.13
2022-11-18T23:45:20.938Z,86.68
2022-11-18T23:47:55.938Z,86.15
2022-11-18T23:50:36.521Z,86.87
2022-11-18T23:53:15.079Z,86.65
2022-11-18T23:55:50.964Z,86.77
2022-11-18T23:58:31.313Z,86.68
